Time;durP1;ratioP1;P1;durP2;ratioP2;P2;SDS_P1;SDS_P2;PMS_P1;PMS_P2;Temp;Humidity;BMP_temperature;BMP_pressure;BME280_temperature;BME280_humidity;BME280_pressure;Samples;Min_cycle;Max_cycle;Signal;HPM_P1;HPM_P2
2022/10/22 00:00:34;;;;;;;;;;;11.90;99.90;;;;;;5095654;28;19963;-78
2022/10/22 00:02:59;;;;;;;;;;;11.90;99.90;;;;;;5099957;28;19923;-78
2022/10/22 00:05:24;;;;;;;;;;;11.80;99.90;;;;;;5096654;28;20363;-78
2022/10/22 00:07:50;;;;;;;;;;;12.00;99.90;;;;;;5095562;28;19927;-78
2022/10/22 00:10:17;;;;;;;;;;;12.30;99.90;;;;;;5114597;28;19919;-78
2022/10/22 00:12:43;;;;;;;;;;;11.80;99.90;;;;;;5114562;28;19978;-78
2022/10/22 00:15:09;;;;;;;;;;;11.80;99.90;;;;;;5113632;28;19981;-78
2022/10/22 00:17:37;;;;;;;;;;;11.80;99.90;;;;;;5114006;27;19943;-77
2022/10/22 00:20:03;;;;;;;;;;;11.80;99.90;;;;;;5113959;28;19927;-78
2022/10/22 00:22:28;;;;;;;;;;;11.80;99.90;;;;;;5113596;28;19919;-78
2022/10/22 00:24:54;;;;;;;;;;;11.80;99.90;;;;;;5113621;28;20002;-77
2022/10/22 00:27:19;;;;;;;;;;;11.90;99.90;;;;;;5114870;27;20335;-77
2022/10/22 00:29:51;;;;;;;;;;;11.80;99.90;;;;;;5095084;27;20458;-78
2022/10/22 00:32:16;;;;;;;;;;;11.70;99.90;;;;;;5094345;28;19928;-77
2022/10/22 00:34:42;;;;;;;;;;;11.70;99.90;;;;;;5114178;28;20004;-77
2022/10/22 00:37:07;;;;;;;;;;;11.60;99.90;;;;;;5094961;28;19927;-77
2022/10/22 00:39:33;;;;;;;;;;;11.80;99.90;;;;;;5116793;27;19920;-77
2022/10/22 00:41:59;;;;;;;;;;;11.80;99.90;;;;;;5113818;28;19915;-77
2022/10/22 00:44:43;;;;;;;;;;;11.70;99.90;;;;;;5090696;28;19920;-77
2022/10/22 00:47:09;;;;;;;;;;;11.60;99.90;;;;;;5111951;28;19923;-77
2022/10/22 00:49:34;;;;;;;;;;;11.50;99.90;;;;;;5094746;28;19926;-77
2022/10/22 00:52:00;;;;;;;;;;;11.60;99.90;;;;;;5095859;28;19919;-78
2022/10/22 00:54:25;;;;;;;;;;;12.20;99.90;;;;;;5095525;28;20309;-77
2022/10/22 00:56:51;;;;;;;;;;;11.50;99.90;;;;;;5112251;28;19927;-77
2022/10/22 00:59:17;;;;;;;;;;;11.50;99.90;;;;;;5094957;28;19973;-77
2022/10/22 01:01:44;;;;;;;;;;;11.50;99.90;;;;;;5115181;27;19945;-77
2022/10/22 01:04:09;;;;;;;;;;;11.50;99.90;;;;;;5094850;28;19965;-78
2022/10/22 01:06:38;;;;;;;;;;;11.50;99.90;;;;;;5113593;28;19959;-77
2022/10/22 01:09:15;;;;;;;;;;;11.40;99.90;;;;;;5096971;28;19962;-77
2022/10/22 01:11:52;;;;;;;;;;;11.50;99.90;;;;;;5094462;28;19966;-77
2022/10/22 01:14:39;;;;;;;;;;;11.50;99.90;;;;;;5087126;28;19920;-77
2022/10/22 01:17:14;;;;;;;;;;;11.50;99.90;;;;;;5114040;27;19919;-77
2022/10/22 01:19:54;;;;;;;;;;;11.60;99.90;;;;;;5112035;28;19923;-78
2022/10/22 01:22:31;;;;;;;;;;;11.60;99.90;;;;;;5113781;27;19946;-77
2022/10/22 01:25:16;;;;;;;;;;;11.60;99.90;;;;;;5091467;28;19924;-77
2022/10/22 01:27:42;;;;;;;;;;;11.70;99.90;;;;;;5114877;27;19928;-78
2022/10/22 01:30:08;;;;;;;;;;;11.70;99.90;;;;;;5094270;28;19927;-77
2022/10/22 01:32:51;;;;;;;;;;;11.80;99.90;;;;;;5093978;28;19920;-78
2022/10/22 01:35:20;;;;;;;;;;;11.90;99.90;;;;;;5090568;28;19965;-76
2022/10/22 01:37:55;;;;;;;;;;;11.90;99.90;;;;;;5108808;28;20398;-78
2022/10/22 01:40:21;;;;;;;;;;;12.00;99.90;;;;;;5090087;28;19920;-78
2022/10/22 01:42:57;;;;;;;;;;;12.00;99.90;;;;;;5115904;28;19930;-78
2022/10/22 01:45:22;;;;;;;;;;;12.10;99.90;;;;;;5113152;28;19988;-77
2022/10/22 01:47:56;;;;;;;;;;;12.20;99.90;;;;;;5112440;28;19979;-77
2022/10/22 01:50:29;;;;;;;;;;;12.20;99.90;;;;;;5094561;28;19915;-78
2022/10/22 01:53:00;;;;;;;;;;;12.30;99.90;;;;;;5112294;28;19926;-78
2022/10/22 01:55:34;;;;;;;;;;;12.20;99.90;;;;;;5112619;28;19916;-77
2022/10/22 01:58:00;;;;;;;;;;;12.20;99.90;;;;;;5094709;28;20010;-78
2022/10/22 02:00:25;;;;;;;;;;;12.70;99.90;;;;;;5094097;28;20006;-77
2022/10/22 02:02:57;;;;;;;;;;;12.40;99.90;;;;;;5094419;28;19926;-77
2022/10/22 02:05:22;;;;;;;;;;;12.30;99.90;;;;;;5112703;28;19962;-77
2022/10/22 02:07:51;;;;;;;;;;;12.40;99.90;;;;;;5094478;28;19966;-78
2022/10/22 02:10:17;;;;;;;;;;;12.40;99.90;;;;;;5112199;28;20402;-78
2022/10/22 02:12:53;;;;;;;;;;;12.40;99.90;;;;;;5094421;28;20379;-78
2022/10/22 02:15:19;;;;;;;;;;;12.40;99.90;;;;;;5091362;28;19931;-78
2022/10/22 02:17:46;;;;;;;;;;;12.40;99.90;;;;;;5112537;28;19927;-78
2022/10/22 02:20:15;;;;;;;;;;;12.40;99.90;;;;;;5112862;28;19931;-78
2022/10/22 02:22:41;;;;;;;;;;;12.40;99.90;;;;;;5107861;28;19927;-78
2022/10/22 02:25:07;;;;;;;;;;;12.50;99.90;;;;;;5112927;28;19920;-78
2022/10/22 02:27:39;;;;;;;;;;;12.50;99.90;;;;;;5112749;28;19920;-78
2022/10/22 02:30:07;;;;;;;;;;;12.50;99.90;;;;;;5112307;28;19924;-78
2022/10/22 02:32:39;;;;;;;;;;;12.50;99.90;;;;;;5093841;28;20263;-77
2022/10/22 02:35:04;;;;;;;;;;;12.50;99.90;;;;;;5093702;28;19920;-77
2022/10/22 02:37:33;;;;;;;;;;;12.50;99.90;;;;;;5092718;28;19997;-78
2022/10/22 02:39:58;;;;;;;;;;;12.60;99.90;;;;;;5091032;28;19959;-78
2022/10/22 02:42:24;;;;;;;;;;;12.60;99.90;;;;;;5092464;28;19962;-78
2022/10/22 02:44:50;;;;;;;;;;;12.60;99.90;;;;;;5096544;28;19924;-77
2022/10/22 02:47:16;;;;;;;;;;;12.60;99.90;;;;;;5095238;28;19973;-78
2022/10/22 02:49:41;;;;;;;;;;;12.70;99.90;;;;;;5094373;28;19928;-78
2022/10/22 02:52:07;;;;;;;;;;;12.80;99.90;;;;;;5096007;28;19920;-78
2022/10/22 02:54:33;;;;;;;;;;;12.80;99.90;;;;;;5091715;28;19920;-78
2022/10/22 02:56:58;;;;;;;;;;;12.90;99.90;;;;;;5095957;28;19927;-78
2022/10/22 02:59:24;;;;;;;;;;;12.80;99.90;;;;;;5095732;28;19927;-79
2022/10/22 03:01:52;;;;;;;;;;;12.80;99.90;;;;;;5095971;28;19923;-78
2022/10/22 03:04:17;;;;;;;;;;;12.80;99.90;;;;;;5095241;28;20341;-78
2022/10/22 03:06:43;;;;;;;;;;;12.90;99.90;;;;;;5096451;28;19920;-78
2022/10/22 03:09:09;;;;;;;;;;;12.80;99.90;;;;;;5098907;28;19944;-78
2022/10/22 03:11:35;;;;;;;;;;;12.80;99.90;;;;;;5094822;28;19987;-78
2022/10/22 03:14:03;;;;;;;;;;;12.80;99.90;;;;;;5097702;28;19943;-77
2022/10/22 03:16:29;;;;;;;;;;;12.80;99.90;;;;;;5094274;28;20396;-77
2022/10/22 03:18:54;;;;;;;;;;;12.80;99.90;;;;;;5097015;28;20364;-78
2022/10/22 03:21:29;;;;;;;;;;;12.80;99.90;;;;;;5096804;28;19916;-78
2022/10/22 03:23:55;;;;;;;;;;;12.70;99.90;;;;;;5099646;28;19973;-77
2022/10/22 03:26:21;;;;;;;;;;;12.80;99.90;;;;;;5097371;28;19916;-77
2022/10/22 03:28:47;;;;;;;;;;;12.80;99.90;;;;;;5096223;28;20334;-78
2022/10/22 03:31:13;;;;;;;;;;;12.80;99.90;;;;;;5093662;28;20290;-78
2022/10/22 03:33:38;;;;;;;;;;;12.80;99.90;;;;;;5094395;28;20006;-78
2022/10/22 03:36:07;;;;;;;;;;;12.80;99.90;;;;;;5104023;28;20379;-78
2022/10/22 03:38:34;;;;;;;;;;;12.80;99.90;;;;;;5116699;28;19919;-78
2022/10/22 03:41:00;;;;;;;;;;;12.80;99.90;;;;;;5097656;27;19963;-78
2022/10/22 03:43:25;;;;;;;;;;;12.80;99.90;;;;;;5115741;27;19970;-79
2022/10/22 03:45:51;;;;;;;;;;;12.80;99.90;;;;;;5096576;28;19923;-78
2022/10/22 03:48:16;;;;;;;;;;;12.80;99.90;;;;;;5114790;28;19919;-78
2022/10/22 03:50:42;;;;;;;;;;;12.80;99.90;;;;;;5115249;28;19923;-78
2022/10/22 03:53:09;;;;;;;;;;;12.80;99.90;;;;;;5113565;28;20052;-78
2022/10/22 03:55:35;;;;;;;;;;;13.10;99.90;;;;;;5115036;28;19926;-77
2022/10/22 03:58:01;;;;;;;;;;;13.20;99.90;;;;;;5096880;28;19919;-77
2022/10/22 04:00:26;;;;;;;;;;;12.80;99.90;;;;;;5114547;28;19920;-78
2022/10/22 04:02:52;;;;;;;;;;;12.80;99.90;;;;;;5115829;28;20359;-78
2022/10/22 04:05:17;;;;;;;;;;;12.80;99.90;;;;;;5114563;28;20401;-78
2022/10/22 04:07:43;;;;;;;;;;;12.80;99.90;;;;;;5114234;28;20363;-77
2022/10/22 04:10:08;;;;;;;;;;;12.70;99.90;;;;;;5115966;27;20311;-77
2022/10/22 04:12:34;;;;;;;;;;;12.70;99.90;;;;;;5114402;28;19927;-78
2022/10/22 04:14:59;;;;;;;;;;;12.70;99.90;;;;;;5114614;27;19926;-77
2022/10/22 04:17:25;;;;;;;;;;;12.70;99.90;;;;;;5095847;28;19920;-78
2022/10/22 04:19:54;;;;;;;;;;;12.70;99.90;;;;;;5096389;27;19920;-77
2022/10/22 04:22:19;;;;;;;;;;;12.60;99.90;;;;;;5098898;28;19931;-78
2022/10/22 04:24:45;;;;;;;;;;;12.60;99.90;;;;;;5096361;28;19920;-77
2022/10/22 04:27:10;;;;;;;;;;;12.60;99.90;;;;;;5114501;28;19980;-78
2022/10/22 04:29:36;;;;;;;;;;;12.70;99.90;;;;;;5113685;28;19924;-77
2022/10/22 04:32:07;;;;;;;;;;;12.60;99.90;;;;;;5100178;28;20282;-78
2022/10/22 04:34:33;;;;;;;;;;;12.60;99.90;;;;;;5095408;28;20020;-77
2022/10/22 04:37:02;;;;;;;;;;;12.70;99.90;;;;;;5113778;28;20425;-77
2022/10/22 04:39:27;;;;;;;;;;;12.70;99.90;;;;;;5095304;28;19926;-78
2022/10/22 04:41:53;;;;;;;;;;;12.70;99.90;;;;;;5095601;28;19923;-78
2022/10/22 04:44:18;;;;;;;;;;;12.70;99.90;;;;;;5096192;28;19922;-78
2022/10/22 04:46:44;;;;;;;;;;;12.70;99.90;;;;;;5114192;28;20095;-77
2022/10/22 04:49:09;;;;;;;;;;;12.70;99.90;;;;;;5113358;28;19919;-78
2022/10/22 04:51:35;;;;;;;;;;;12.70;99.90;;;;;;5096596;28;19945;-77
2022/10/22 04:54:01;;;;;;;;;;;12.50;99.90;;;;;;5117366;27;19959;-78
2022/10/22 04:56:28;;;;;;;;;;;12.60;99.90;;;;;;5115114;28;19915;-78
2022/10/22 04:58:55;;;;;;;;;;;12.70;99.90;;;;;;5116240;28;19926;-78
2022/10/22 05:01:23;;;;;;;;;;;12.70;99.90;;;;;;5117514;28;19924;-76
2022/10/22 05:03:53;;;;;;;;;;;12.60;99.90;;;;;;5117030;28;19952;-78
2022/10/22 05:06:22;;;;;;;;;;;12.70;99.90;;;;;;5119084;27;19942;-78
2022/10/22 05:08:50;;;;;;;;;;;12.70;99.90;;;;;;5117064;28;19959;-77
2022/10/22 05:11:17;;;;;;;;;;;12.70;99.90;;;;;;5116579;28;19959;-77
2022/10/22 05:13:43;;;;;;;;;;;12.70;99.90;;;;;;5119630;28;19966;-77
2022/10/22 05:16:11;;;;;;;;;;;12.70;99.90;;;;;;5120736;28;19916;-77
2022/10/22 05:18:38;;;;;;;;;;;12.70;99.90;;;;;;5119667;28;20020;-78
2022/10/22 05:21:06;;;;;;;;;;;12.60;99.90;;;;;;5120517;27;19927;-78
2022/10/22 05:23:34;;;;;;;;;;;12.70;99.90;;;;;;5119611;28;19919;-78
2022/10/22 05:26:01;;;;;;;;;;;12.70;99.90;;;;;;5119758;28;19919;-76
2022/10/22 05:28:26;;;;;;;;;;;12.60;99.90;;;;;;5101228;28;19942;-77
2022/10/22 05:30:53;;;;;;;;;;;13.20;99.90;;;;;;5120251;27;19923;-78
2022/10/22 05:33:18;;;;;;;;;;;12.60;99.90;;;;;;5094419;28;19920;-79
2022/10/22 05:35:44;;;;;;;;;;;12.70;99.90;;;;;;5113214;28;19927;-78
2022/10/22 05:38:12;;;;;;;;;;;12.50;99.90;;;;;;5112291;28;19980;-78
2022/10/22 05:40:38;;;;;;;;;;;12.60;99.90;;;;;;5100026;28;20364;-79
2022/10/22 05:43:03;;;;;;;;;;;12.50;99.90;;;;;;5112890;28;19922;-78
2022/10/22 05:45:29;;;;;;;;;;;12.50;99.90;;;;;;5093500;28;19927;-79
2022/10/22 05:47:54;;;;;;;;;;;12.50;99.90;;;;;;5094456;28;19963;-78
2022/10/22 05:50:20;;;;;;;;;;;12.50;99.90;;;;;;5113284;28;19916;-78
2022/10/22 05:52:45;;;;;;;;;;;12.60;99.90;;;;;;5093996;28;20378;-78
2022/10/22 05:55:11;;;;;;;;;;;12.60;99.90;;;;;;5094833;28;19924;-78
2022/10/22 05:57:38;;;;;;;;;;;12.70;99.90;;;;;;5112252;28;20367;-78
2022/10/22 06:00:04;;;;;;;;;;;12.70;99.90;;;;;;5115970;27;20420;-78
2022/10/22 06:02:32;;;;;;;;;;;12.70;99.90;;;;;;5115982;27;19924;-78
2022/10/22 06:04:58;;;;;;;;;;;13.90;99.90;;;;;;5112618;28;19916;-78
2022/10/22 06:07:24;;;;;;;;;;;12.80;99.90;;;;;;5111584;28;19920;-78
2022/10/22 06:09:50;;;;;;;;;;;12.70;99.90;;;;;;5112262;28;19984;-78
2022/10/22 06:12:15;;;;;;;;;;;12.70;99.90;;;;;;5112610;28;19966;-79
2022/10/22 06:14:41;;;;;;;;;;;12.80;99.90;;;;;;5111231;28;20007;-78
2022/10/22 06:17:06;;;;;;;;;;;12.70;99.90;;;;;;5096161;28;19919;-78
2022/10/22 06:19:32;;;;;;;;;;;12.70;99.90;;;;;;5116435;28;19927;-78
2022/10/22 06:21:57;;;;;;;;;;;13.20;99.90;;;;;;5097731;28;19939;-78
2022/10/22 06:24:23;;;;;;;;;;;12.70;99.90;;;;;;5098158;28;20003;-79
2022/10/22 06:26:49;;;;;;;;;;;12.60;99.90;;;;;;5097718;28;19920;-78
2022/10/22 06:29:15;;;;;;;;;;;12.60;99.90;;;;;;5098880;27;19920;-78
2022/10/22 06:31:40;;;;;;;;;;;12.70;99.90;;;;;;5118582;27;19943;-79
2022/10/22 06:34:12;;;;;;;;;;;12.60;99.90;;;;;;5115863;28;20033;-79
2022/10/22 06:36:38;;;;;;;;;;;12.50;99.90;;;;;;5116276;28;19927;-78
2022/10/22 06:39:04;;;;;;;;;;;12.70;99.90;;;;;;5119093;27;20637;-77
2022/10/22 06:41:29;;;;;;;;;;;12.70;99.90;;;;;;5115823;28;19977;-79
2022/10/22 06:43:58;;;;;;;;;;;12.70;99.90;;;;;;5098333;28;19963;-79
2022/10/22 06:46:24;;;;;;;;;;;12.80;99.90;;;;;;5120857;27;19920;-83
2022/10/22 06:48:51;;;;;;;;;;;12.80;99.90;;;;;;5101604;28;19930;-77
2022/10/22 06:51:17;;;;;;;;;;;12.80;99.90;;;;;;5116414;28;20010;-78
2022/10/22 06:53:43;;;;;;;;;;;12.70;99.90;;;;;;5097660;28;20387;-78
2022/10/22 06:56:09;;;;;;;;;;;12.80;99.90;;;;;;5097597;28;19927;-77
2022/10/22 06:58:35;;;;;;;;;;;12.80;99.90;;;;;;5117862;27;19956;-79
2022/10/22 07:01:01;;;;;;;;;;;12.80;99.90;;;;;;5097567;28;19970;-78
2022/10/22 07:03:30;;;;;;;;;;;12.80;99.90;;;;;;5117283;27;19945;-78
2022/10/22 07:05:59;;;;;;;;;;;12.80;99.90;;;;;;5098790;28;19923;-79
2022/10/22 07:08:25;;;;;;;;;;;12.90;99.90;;;;;;5096952;28;20367;-79
2022/10/22 07:10:50;;;;;;;;;;;12.90;99.90;;;;;;5109454;27;19940;-79
2022/10/22 07:13:16;;;;;;;;;;;12.80;99.90;;;;;;5116475;27;19920;-80
2022/10/22 07:15:42;;;;;;;;;;;12.90;99.90;;;;;;5097757;28;20007;-79
2022/10/22 07:18:10;;;;;;;;;;;13.00;99.90;;;;;;5115380;28;19927;-79
2022/10/22 07:20:36;;;;;;;;;;;12.90;99.90;;;;;;5117689;27;19923;-79
2022/10/22 07:23:02;;;;;;;;;;;12.90;99.90;;;;;;5123526;27;19919;-79
2022/10/22 07:25:27;;;;;;;;;;;12.90;99.90;;;;;;5118891;27;19926;-80
2022/10/22 07:27:53;;;;;;;;;;;13.00;99.90;;;;;;5116336;27;19920;-78
2022/10/22 07:30:18;;;;;;;;;;;13.00;99.90;;;;;;5115019;27;19927;-80
2022/10/22 07:32:44;;;;;;;;;;;13.40;99.90;;;;;;5110981;27;19941;-79
2022/10/22 07:35:09;;;;;;;;;;;13.00;99.90;;;;;;5115635;28;19924;-79
2022/10/22 07:37:35;;;;;;;;;;;13.00;99.90;;;;;;5095360;28;19926;-78
2022/10/22 07:40:00;;;;;;;;;;;13.10;99.90;;;;;;5115660;27;19973;-79
2022/10/22 07:42:26;;;;;;;;;;;13.20;99.90;;;;;;5115061;28;19920;-79
2022/10/22 07:44:51;;;;;;;;;;;13.30;99.90;;;;;;5114800;28;19920;-78
2022/10/22 07:47:17;;;;;;;;;;;13.30;99.90;;;;;;5115900;27;19926;-78
2022/10/22 07:49:42;;;;;;;;;;;13.40;99.90;;;;;;5116184;27;19920;-79
2022/10/22 07:52:08;;;;;;;;;;;13.70;99.90;;;;;;5098886;28;19931;-78
2022/10/22 07:54:33;;;;;;;;;;;13.80;99.90;;;;;;5114782;28;19923;-76
2022/10/22 07:57:02;;;;;;;;;;;13.90;99.90;;;;;;5114755;27;19924;-70
2022/10/22 07:59:28;;;;;;;;;;;14.20;99.90;;;;;;5113538;28;19945;-71
2022/10/22 08:01:53;;;;;;;;;;;14.80;99.90;;;;;;5115742;27;19943;-76
2022/10/22 08:04:19;;;;;;;;;;;15.80;99.90;;;;;;5096559;28;19950;-77
2022/10/22 08:06:44;;;;;;;;;;;16.50;99.90;;;;;;5098980;28;19923;-73
2022/10/22 08:09:10;;;;;;;;;;;17.10;99.90;;;;;;5095774;28;19926;-72
2022/10/22 08:11:38;;;;;;;;;;;17.50;99.90;;;;;;5115078;28;19919;-77
2022/10/22 08:14:04;;;;;;;;;;;17.60;99.90;;;;;;5114899;28;19916;-72
2022/10/22 08:16:29;;;;;;;;;;;17.70;99.90;;;;;;5125407;27;19931;-71
2022/10/22 08:18:55;;;;;;;;;;;18.10;99.90;;;;;;5115898;27;19920;-80
2022/10/22 08:21:20;;;;;;;;;;;18.60;99.90;;;;;;5113858;28;19919;-79
2022/10/22 08:23:49;;;;;;;;;;;18.90;99.90;;;;;;5114167;28;20722;-74
2022/10/22 08:26:14;;;;;;;;;;;18.70;99.90;;;;;;5096233;28;19923;-72
2022/10/22 08:28:40;;;;;;;;;;;18.30;99.90;;;;;;5095215;28;20430;-78
2022/10/22 08:31:06;;;;;;;;;;;18.20;99.90;;;;;;5098414;28;19927;-77
2022/10/22 08:33:32;;;;;;;;;;;18.60;99.90;;;;;;5095612;27;19927;-79
2022/10/22 08:35:58;;;;;;;;;;;18.50;99.90;;;;;;5115851;28;19920;-83
2022/10/22 08:38:23;;;;;;;;;;;18.30;99.90;;;;;;5114585;27;20026;-81
2022/10/22 08:40:51;;;;;;;;;;;18.00;99.90;;;;;;5113211;28;19927;-77
2022/10/22 08:43:23;;;;;;;;;;;17.60;99.90;;;;;;5096041;28;19919;-77
2022/10/22 08:45:53;;;;;;;;;;;17.30;99.90;;;;;;5094628;27;20370;-75
2022/10/22 08:48:37;;;;;;;;;;;17.20;99.90;;;;;;5112542;27;19919;-76
2022/10/22 08:51:02;;;;;;;;;;;17.00;99.90;;;;;;5112882;28;19924;-78
2022/10/22 08:53:37;;;;;;;;;;;16.90;99.90;;;;;;5096472;28;19934;-80
2022/10/22 08:56:03;;;;;;;;;;;16.60;99.90;;;;;;5112136;28;19920;-89
2022/10/22 08:58:34;;;;;;;;;;;16.40;99.90;;;;;;5112451;28;19923;-76
2022/10/22 09:01:19;;;;;;;;;;;16.30;99.90;;;;;;5112543;27;19947;-73
2022/10/22 09:03:57;;;;;;;;;;;16.20;99.90;;;;;;5108614;27;19920;-74
2022/10/22 09:06:27;;;;;;;;;;;16.00;99.90;;;;;;5092523;28;19927;-73
2022/10/22 09:08:56;;;;;;;;;;;15.90;99.90;;;;;;5110731;28;19959;-73
2022/10/22 09:11:24;;;;;;;;;;;15.90;99.90;;;;;;5112693;27;19926;-76
2022/10/22 09:13:52;;;;;;;;;;;16.10;99.90;;;;;;5112657;28;19931;-73
2022/10/22 09:16:38;;;;;;;;;;;15.90;99.90;;;;;;5090625;28;19920;-72
2022/10/22 09:19:28;;;;;;;;;;;16.00;99.90;;;;;;5088094;28;19927;-72
2022/10/22 09:21:57;;;;;;;;;;;16.00;99.90;;;;;;5112308;27;19927;-75
2022/10/22 09:24:30;;;;;;;;;;;15.90;99.90;;;;;;5090179;28;19931;-73
2022/10/22 09:26:56;;;;;;;;;;;16.00;99.90;;;;;;5112429;27;19923;-73
2022/10/22 09:29:23;;;;;;;;;;;16.20;99.90;;;;;;5091153;28;19928;-74
2022/10/22 09:31:50;;;;;;;;;;;16.20;99.90;;;;;;5092546;28;20542;-78
2022/10/22 09:34:19;;;;;;;;;;;16.00;99.90;;;;;;5094498;28;20394;-82
2022/10/22 09:36:45;;;;;;;;;;;15.90;99.90;;;;;;5088410;28;20014;-73
2022/10/22 09:39:39;;;;;;;;;;;15.80;99.90;;;;;;5107212;22;19940;-76
2022/10/22 09:42:06;;;;;;;;;;;15.80;99.90;;;;;;5035429;28;19964;-74
2022/10/22 09:44:32;;;;;;;;;;;16.10;99.90;;;;;;5058294;28;19916;-72
2022/10/22 09:46:58;;;;;;;;;;;16.30;99.90;;;;;;5079247;28;19920;-73
2022/10/22 09:49:23;;;;;;;;;;;16.40;99.90;;;;;;5050632;28;19920;-71
2022/10/22 09:51:52;;;;;;;;;;;16.40;99.90;;;;;;5052565;28;19963;-73
2022/10/22 09:54:19;;;;;;;;;;;16.30;99.90;;;;;;5043295;28;19979;-73
2022/10/22 09:56:51;;;;;;;;;;;16.40;99.90;;;;;;5063688;28;20276;-74
2022/10/22 09:59:17;;;;;;;;;;;16.50;99.90;;;;;;5078321;28;19929;-71
2022/10/22 10:01:43;;;;;;;;;;;16.60;99.90;;;;;;5059530;28;19960;-72
2022/10/22 10:04:10;;;;;;;;;;;16.90;99.90;;;;;;5058835;28;19928;-73
2022/10/22 10:06:39;;;;;;;;;;;17.20;99.90;;;;;;5053387;28;20336;-74
2022/10/22 10:09:13;;;;;;;;;;;17.90;99.90;;;;;;5062586;28;19975;-71
2022/10/22 10:11:43;;;;;;;;;;;19.00;99.90;;;;;;5059891;28;20387;-73
2022/10/22 10:14:08;;;;;;;;;;;19.90;99.90;;;;;;5063695;28;20339;-75
2022/10/22 10:16:41;;;;;;;;;;;19.90;99.90;;;;;;5059049;28;19925;-72
2022/10/22 10:19:23;;;;;;;;;;;19.50;99.90;;;;;;5052670;28;19921;-73
2022/10/22 10:22:08;;;;;;;;;;;19.00;99.90;;;;;;5059859;28;20292;-75
2022/10/22 10:24:34;;;;;;;;;;;18.80;99.90;;;;;;5051308;28;19924;-77
2022/10/22 10:27:18;;;;;;;;;;;18.70;99.90;;;;;;5052764;28;19920;-73
2022/10/22 10:30:16;;;;;;;;;;;18.90;99.90;;;;;;5061750;28;20638;-77
2022/10/22 10:32:57;;;;;;;;;;;18.70;99.90;;;;;;5062712;28;20416;-75
2022/10/22 10:35:25;;;;;;;;;;;18.40;99.90;;;;;;5050375;28;19921;-80
2022/10/22 10:38:10;;;;;;;;;;;17.80;99.90;;;;;;5034463;28;19920;-74
2022/10/22 10:40:35;;;;;;;;;;;17.30;99.90;;;;;;5048493;28;20007;-76
2022/10/22 10:43:14;;;;;;;;;;;17.00;99.90;;;;;;5082161;28;20354;-76
2022/10/22 10:45:45;;;;;;;;;;;16.70;99.90;;;;;;5068315;28;20353;-75
2022/10/22 10:48:18;;;;;;;;;;;16.50;99.90;;;;;;5052000;28;20002;-78
2022/10/22 10:51:03;;;;;;;;;;;16.20;99.90;;;;;;5055820;28;20388;-75
2022/10/22 10:53:47;;;;;;;;;;;16.10;99.90;;;;;;5057005;28;20287;-76
2022/10/22 10:56:12;;;;;;;;;;;16.10;99.90;;;;;;5058410;28;20419;-77
2022/10/22 10:58:49;;;;;;;;;;;16.00;99.90;;;;;;5061418;28;19983;-79
2022/10/22 11:01:18;;;;;;;;;;;16.00;99.90;;;;;;5050117;28;19920;-80
2022/10/22 11:03:49;;;;;;;;;;;15.90;99.90;;;;;;5066746;28;20373;-74
2022/10/22 11:06:16;;;;;;;;;;;15.90;99.90;;;;;;5072132;28;19921;-80
2022/10/22 11:08:44;;;;;;;;;;;15.90;99.90;;;;;;5064732;28;19933;-78
2022/10/22 11:11:18;;;;;;;;;;;16.10;99.90;;;;;;5055749;28;19943;-80
2022/10/22 11:13:48;;;;;;;;;;;16.20;99.90;;;;;;5054757;28;19927;-78
2022/10/22 11:16:19;;;;;;;;;;;16.20;99.90;;;;;;5043165;28;19924;-79
2022/10/22 11:19:03;;;;;;;;;;;16.40;99.90;;;;;;5067326;28;19924;-90
2022/10/22 11:21:31;;;;;;;;;;;16.30;99.90;;;;;;5066958;28;19924;-84
2022/10/22 11:24:17;;;;;;;;;;;16.30;99.90;;;;;;5073660;28;19920;-78
2022/10/22 11:26:51;;;;;;;;;;;16.40;99.90;;;;;;5051950;28;19920;-88
2022/10/22 11:29:40;;;;;;;;;;;16.50;99.90;;;;;;5070627;28;19927;-81
2022/10/22 11:32:09;;;;;;;;;;;16.20;99.90;;;;;;5056407;28;19950;-78
2022/10/22 11:34:40;;;;;;;;;;;16.10;99.90;;;;;;5056296;28;19924;-82
2022/10/22 11:37:09;;;;;;;;;;;16.10;99.90;;;;;;5061885;28;20372;-82
2022/10/22 11:39:41;;;;;;;;;;;16.00;99.90;;;;;;5072233;28;19931;-74
2022/10/22 11:42:09;;;;;;;;;;;16.00;99.90;;;;;;5063641;28;19920;-77
2022/10/22 11:44:45;;;;;;;;;;;15.90;99.90;;;;;;5066105;28;19920;-81
2022/10/22 11:47:23;;;;;;;;;;;15.90;99.90;;;;;;5071532;28;19920;-80
2022/10/22 11:49:55;;;;;;;;;;;16.10;99.90;;;;;;5066349;28;19916;-76
2022/10/22 11:52:25;;;;;;;;;;;16.30;99.90;;;;;;5064281;28;20356;-80
2022/10/22 11:54:56;;;;;;;;;;;16.40;99.90;;;;;;5065946;28;19916;-74
2022/10/22 11:57:36;;;;;;;;;;;16.40;99.90;;;;;;5061366;28;19927;-72
2022/10/22 12:00:21;;;;;;;;;;;16.60;99.90;;;;;;5060411;28;19920;-72
2022/10/22 12:03:00;;;;;;;;;;;16.70;99.90;;;;;;5061734;28;20345;-73
2022/10/22 12:05:25;;;;;;;;;;;16.70;99.90;;;;;;5063231;28;19929;-72
2022/10/22 12:07:58;;;;;;;;;;;16.70;99.90;;;;;;5062903;28;19927;-74
2022/10/22 12:10:25;;;;;;;;;;;16.80;99.90;;;;;;5071262;28;19931;-73
2022/10/22 12:12:55;;;;;;;;;;;16.80;99.90;;;;;;5060332;28;19924;-73
2022/10/22 12:15:27;;;;;;;;;;;16.80;99.90;;;;;;5072982;28;20372;-75
2022/10/22 12:18:04;;;;;;;;;;;16.90;99.90;;;;;;5063758;28;20331;-79
2022/10/22 12:20:29;;;;;;;;;;;16.90;99.90;;;;;;5069364;28;20032;-73
2022/10/22 12:22:57;;;;;;;;;;;16.90;99.90;;;;;;5074653;28;19940;-74
2022/10/22 12:25:29;;;;;;;;;;;16.90;99.90;;;;;;5064102;28;19928;-77
2022/10/22 12:27:56;;;;;;;;;;;17.00;99.90;;;;;;5073051;28;19943;-82
2022/10/22 12:30:26;;;;;;;;;;;17.10;99.90;;;;;;5073237;28;19974;-76
2022/10/22 12:32:55;;;;;;;;;;;17.00;99.90;;;;;;5072869;28;19935;-76
2022/10/22 12:35:23;;;;;;;;;;;17.10;99.90;;;;;;5072891;28;19928;-72
2022/10/22 12:37:53;;;;;;;;;;;17.20;99.90;;;;;;5071152;28;19924;-73
2022/10/22 12:40:21;;;;;;;;;;;17.20;99.90;;;;;;5072324;28;19927;-70
2022/10/22 12:43:07;;;;;;;;;;;17.10;99.90;;;;;;5062917;28;19978;-81
2022/10/22 12:45:33;;;;;;;;;;;17.30;99.90;;;;;;5065998;28;19928;-76
2022/10/22 12:48:04;;;;;;;;;;;17.60;99.90;;;;;;5069667;28;19921;-79
2022/10/22 12:50:32;;;;;;;;;;;17.80;99.90;;;;;;5068163;28;19925;-78
2022/10/22 12:52:57;;;;;;;;;;;18.10;99.90;;;;;;5059545;28;19943;-80
2022/10/22 12:55:26;;;;;;;;;;;18.30;99.90;;;;;;5072093;28;19999;-78
2022/10/22 12:57:52;;;;;;;;;;;18.60;99.90;;;;;;5073323;28;19927;-79
2022/10/22 13:00:25;;;;;;;;;;;18.70;99.90;;;;;;5058721;28;20332;-71
2022/10/22 13:02:56;;;;;;;;;;;18.60;99.90;;;;;;5072123;28;19921;-72
2022/10/22 13:05:24;;;;;;;;;;;18.50;99.90;;;;;;5068154;28;19920;-74
2022/10/22 13:08:00;;;;;;;;;;;18.70;99.90;;;;;;5071375;28;19923;-75
2022/10/22 13:10:29;;;;;;;;;;;18.70;99.90;;;;;;5072406;28;19920;-70
2022/10/22 13:12:56;;;;;;;;;;;18.50;99.90;;;;;;5065582;28;19924;-71
2022/10/22 13:15:35;;;;;;;;;;;18.50;99.90;;;;;;5061441;28;19920;-73
2022/10/22 13:18:05;;;;;;;;;;;18.30;99.90;;;;;;5057408;28;19927;-72
2022/10/22 13:20:30;;;;;;;;;;;18.40;99.90;;;;;;5058088;28;19921;-72
2022/10/22 13:22:59;;;;;;;;;;;18.40;99.90;;;;;;5071425;28;20751;-72
2022/10/22 13:25:35;;;;;;;;;;;18.50;99.90;;;;;;5055605;28;20387;-71
2022/10/22 13:28:02;;;;;;;;;;;18.40;99.90;;;;;;5071756;28;20003;-72
2022/10/22 13:30:35;;;;;;;;;;;18.50;99.90;;;;;;5057393;28;19959;-70
2022/10/22 13:33:04;;;;;;;;;;;18.40;99.90;;;;;;5072194;28;19960;-71
2022/10/22 13:35:31;;;;;;;;;;;18.40;99.90;;;;;;5071602;28;19921;-70
2022/10/22 13:37:58;;;;;;;;;;;18.30;99.90;;;;;;5052079;28;19927;-71
2022/10/22 13:40:23;;;;;;;;;;;18.50;99.90;;;;;;5053091;28;19920;-72
2022/10/22 13:42:49;;;;;;;;;;;18.60;99.90;;;;;;5060761;28;19927;-71
2022/10/22 13:45:15;;;;;;;;;;;18.60;99.90;;;;;;5050099;28;19959;-71
2022/10/22 13:47:43;;;;;;;;;;;18.60;99.90;;;;;;5063455;28;20303;-73
2022/10/22 13:50:13;;;;;;;;;;;18.50;99.90;;;;;;5061792;28;20066;-70
2022/10/22 13:52:40;;;;;;;;;;;18.50;99.90;;;;;;5065855;28;19925;-72
2022/10/22 13:55:16;;;;;;;;;;;18.70;99.90;;;;;;5058123;28;19927;-71
2022/10/22 13:57:42;;;;;;;;;;;18.60;99.90;;;;;;5058138;28;19943;-70
2022/10/22 14:00:10;;;;;;;;;;;18.50;99.90;;;;;;5048685;28;19920;-71
2022/10/22 14:02:36;;;;;;;;;;;18.50;99.90;;;;;;5050725;28;19995;-71
2022/10/22 14:05:03;;;;;;;;;;;18.50;99.90;;;;;;5058486;28;19972;-71
2022/10/22 14:07:28;;;;;;;;;;;18.30;99.90;;;;;;5045908;28;19920;-73
2022/10/22 14:09:54;;;;;;;;;;;18.20;99.90;;;;;;5064659;28;19947;-70
2022/10/22 14:12:20;;;;;;;;;;;18.10;99.90;;;;;;5059054;28;20017;-71
2022/10/22 14:14:45;;;;;;;;;;;18.00;99.90;;;;;;5061458;28;19924;-71
2022/10/22 14:17:15;;;;;;;;;;;17.80;99.90;;;;;;5065291;28;20003;-71
2022/10/22 14:19:45;;;;;;;;;;;17.90;99.90;;;;;;5059630;28;19975;-71
2022/10/22 14:22:12;;;;;;;;;;;17.90;99.90;;;;;;5050067;28;20007;-72
2022/10/22 14:24:38;;;;;;;;;;;17.70;99.90;;;;;;5071318;28;19921;-70